Time;durP1;ratioP1;P1;durP2;ratioP2;P2;SDS_P1;SDS_P2;PMS_P1;PMS_P2;Temp;Humidity;BMP_temperature;BMP_pressure;BME280_temperature;BME280_humidity;BME280_pressure;Samples;Min_cycle;Max_cycle;Signal;HPM_P1;HPM_P2
2022/10/27 00:01:18;;;;;;;;;;;;;;;4.43;100.00;98354.59;107658;1269;59766;-69
2022/10/27 00:03:50;;;;;;;;;;;;;;;4.41;100.00;98355.01;107647;1268;71385;-69
2022/10/27 00:06:19;;;;;;;;;;;;;;;4.38;100.00;98358.91;107639;1268;68415;-69
2022/10/27 00:08:49;;;;;;;;;;;;;;;4.34;100.00;98363.00;107643;1273;69290;-69
2022/10/27 00:11:18;;;;;;;;;;;;;;;4.33;100.00;98363.21;107666;1268;59714;-69
2022/10/27 00:13:49;;;;;;;;;;;;;;;4.32;100.00;98366.20;107624;1269;59680;-69
2022/10/27 00:16:20;;;;;;;;;;;;;;;4.30;100.00;98371.60;107654;1269;70863;-69
2022/10/27 00:18:50;;;;;;;;;;;;;;;4.30;100.00;98373.33;107643;1265;68613;-69
2022/10/27 00:21:21;;;;;;;;;;;;;;;4.26;100.00;98374.84;107657;1268;68318;-69
2022/10/27 00:23:51;;;;;;;;;;;;;;;4.20;100.00;98375.02;107692;1269;59732;-69
2022/10/27 00:26:21;;;;;;;;;;;;;;;4.15;100.00;98378.81;107642;1269;59687;-68
2022/10/27 00:28:50;;;;;;;;;;;;;;;4.07;100.00;98384.05;107636;1269;71389;-69
2022/10/27 00:31:21;;;;;;;;;;;;;;;3.98;100.00;98388.30;107609;1271;69246;-70
2022/10/27 00:33:51;;;;;;;;;;;;;;;3.94;100.00;98389.63;107617;1274;69452;-70
2022/10/27 00:36:22;;;;;;;;;;;;;;;3.94;100.00;98391.36;107656;1270;59704;-70
2022/10/27 00:38:55;;;;;;;;;;;;;;;3.97;100.00;98399.73;107698;1269;59695;-70
2022/10/27 00:41:30;;;;;;;;;;;;;;;4.01;100.00;98402.17;107668;1270;70638;-70
2022/10/27 00:44:00;;;;;;;;;;;;;;;4.04;100.00;98403.81;107666;1268;69715;-70
2022/10/27 00:46:45;;;;;;;;;;;;;;;4.09;100.00;98400.23;107653;1270;69510;-70
2022/10/27 00:49:17;;;;;;;;;;;;;;;4.19;100.00;98399.74;107684;1266;59776;-69
2022/10/27 00:51:55;;;;;;;;;;;;;;;4.31;100.00;98398.66;107640;1269;59728;-69
2022/10/27 00:54:27;;;;;;;;;;;;;;;4.42;100.00;98405.39;107670;1269;71423;-69
2022/10/27 00:56:58;;;;;;;;;;;;;;;4.47;100.00;98407.64;107677;1268;68484;-69
2022/10/27 00:59:27;;;;;;;;;;;;;;;4.48;100.00;98402.06;107680;1269;69153;-69
2022/10/27 01:01:58;;;;;;;;;;;;;;;4.50;100.00;98398.89;107654;1270;59787;-68
2022/10/27 01:04:37;;;;;;;;;;;;;;;4.52;100.00;98404.20;107662;1268;59714;-68
2022/10/27 01:07:06;;;;;;;;;;;;;;;4.54;100.00;98401.35;107676;1269;71465;-69
2022/10/27 01:09:38;;;;;;;;;;;;;;;4.57;100.00;98400.56;107656;1269;69185;-69
2022/10/27 01:12:08;;;;;;;;;;;;;;;4.61;100.00;98393.03;107639;1269;69096;-69
2022/10/27 01:14:38;;;;;;;;;;;;;;;4.64;100.00;98395.20;107639;1270;59741;-69
2022/10/27 01:17:13;;;;;;;;;;;;;;;4.68;100.00;98394.35;107648;1269;59733;-70
2022/10/27 01:19:52;;;;;;;;;;;;;;;4.75;100.00;98394.12;107672;1273;70638;-69
2022/10/27 01:22:41;;;;;;;;;;;;;;;4.80;100.00;98395.32;107637;1268;69240;-69
2022/10/27 01:25:31;;;;;;;;;;;;;;;4.85;100.00;98393.59;107639;1268;69301;-69
2022/10/27 01:28:19;;;;;;;;;;;;;;;4.93;100.00;98397.46;107677;1268;59714;-69
2022/10/27 01:30:50;;;;;;;;;;;;;;;5.00;100.00;98396.16;107662;1267;59773;-70
2022/10/27 01:33:23;;;;;;;;;;;;;;;5.06;100.00;98401.33;107629;1269;70190;-69
2022/10/27 01:36:04;;;;;;;;;;;;;;;5.12;100.00;98404.23;107619;1269;69802;-70
2022/10/27 01:38:39;;;;;;;;;;;;;;;5.18;100.00;98397.45;107641;1268;69266;-70
2022/10/27 01:41:16;;;;;;;;;;;;;;;5.22;100.00;98395.23;107646;1269;59694;-70
2022/10/27 01:43:45;;;;;;;;;;;;;;;5.20;100.00;98389.61;107644;1269;59703;-70
2022/10/27 01:46:15;;;;;;;;;;;;;;;5.17;100.00;98397.66;107647;1268;72098;-70
2022/10/27 01:48:44;;;;;;;;;;;;;;;5.13;100.00;98396.27;107673;1269;69876;-70
2022/10/27 01:51:14;;;;;;;;;;;;;;;5.06;100.00;98398.05;107669;1269;67596;-70
2022/10/27 01:53:45;;;;;;;;;;;;;;;5.00;100.00;98395.51;107630;1266;59773;-70
2022/10/27 01:56:32;;;;;;;;;;;;;;;4.92;100.00;98391.96;107631;1269;59665;-70
2022/10/27 01:59:10;;;;;;;;;;;;;;;4.88;100.00;98390.91;107642;1268;71327;-70
2022/10/27 02:01:39;;;;;;;;;;;;;;;4.84;100.00;98391.20;107644;1268;69023;-70
2022/10/27 02:04:16;;;;;;;;;;;;;;;4.79;100.00;98395.19;107650;1269;68431;-70
2022/10/27 02:06:50;;;;;;;;;;;;;;;4.70;100.00;98396.53;107662;1270;59797;-70
2022/10/27 02:09:38;;;;;;;;;;;;;;;4.62;100.00;98402.67;107654;1269;59747;-69
2022/10/27 02:12:29;;;;;;;;;;;;;;;4.53;100.00;98406.58;107667;1269;70609;-70
2022/10/27 02:15:05;;;;;;;;;;;;;;;4.48;100.00;98404.85;107634;1269;69226;-70
2022/10/27 02:17:37;;;;;;;;;;;;;;;4.43;100.00;98403.62;107625;1271;69719;-69
2022/10/27 02:20:13;;;;;;;;;;;;;;;4.39;100.00;98404.11;107631;1265;59766;-70
2022/10/27 02:22:43;;;;;;;;;;;;;;;4.36;100.00;98407.67;107648;1270;59820;-70
2022/10/27 02:25:25;;;;;;;;;;;;;;;4.34;100.00;98406.16;107662;1268;71407;-70
2022/10/27 02:28:01;;;;;;;;;;;;;;;4.33;100.00;98407.73;107666;1269;68994;-69
2022/10/27 02:30:35;;;;;;;;;;;;;;;4.37;100.00;98412.45;107619;1270;68481;-70
2022/10/27 02:33:06;;;;;;;;;;;;;;;4.41;100.00;98411.96;107623;1267;59738;-69
2022/10/27 02:35:37;;;;;;;;;;;;;;;4.47;100.00;98411.61;107663;1269;59629;-70
2022/10/27 02:38:06;;;;;;;;;;;;;;;4.48;100.00;98416.07;107649;1271;70573;-70
2022/10/27 02:40:35;;;;;;;;;;;;;;;4.45;100.00;98422.21;107631;1268;69783;-70
2022/10/27 02:43:05;;;;;;;;;;;;;;;4.46;100.00;98427.88;107636;1269;69725;-70
2022/10/27 02:45:35;;;;;;;;;;;;;;;4.49;100.00;98429.67;107624;1268;59794;-70
2022/10/27 02:48:05;;;;;;;;;;;;;;;4.51;100.00;98429.10;107619;1270;59732;-70
2022/10/27 02:50:36;;;;;;;;;;;;;;;4.57;100.00;98427.52;107652;1270;71521;-69
2022/10/27 02:53:11;;;;;;;;;;;;;;;4.63;100.00;98425.10;107622;1270;69259;-70
2022/10/27 02:55:41;;;;;;;;;;;;;;;4.65;100.00;98426.59;107651;1264;69568;-70
2022/10/27 02:58:13;;;;;;;;;;;;;;;4.68;100.00;98432.16;107646;1270;59805;-70
2022/10/27 03:00:43;;;;;;;;;;;;;;;4.71;100.00;98435.35;107663;1269;59746;-70
2022/10/27 03:03:13;;;;;;;;;;;;;;;4.75;100.00;98435.04;107680;1271;71809;-70
2022/10/27 03:05:42;;;;;;;;;;;;;;;4.81;100.00;98439.00;107653;1266;69231;-70
2022/10/27 03:08:17;;;;;;;;;;;;;;;4.86;100.00;98439.69;107625;1270;69669;-70
2022/10/27 03:10:48;;;;;;;;;;;;;;;4.90;100.00;98439.71;107665;1270;59731;-70
2022/10/27 03:13:18;;;;;;;;;;;;;;;4.95;100.00;98437.31;107650;1269;59695;-70
2022/10/27 03:15:47;;;;;;;;;;;;;;;5.01;100.00;98443.15;107681;1269;71449;-70
2022/10/27 03:18:17;;;;;;;;;;;;;;;5.07;100.00;98444.86;107662;1270;69111;-70
2022/10/27 03:20:47;;;;;;;;;;;;;;;5.14;100.00;98448.08;107640;1266;69136;-69
2022/10/27 03:23:16;;;;;;;;;;;;;;;5.18;100.00;98442.23;107645;1270;59791;-70
2022/10/27 03:25:47;;;;;;;;;;;;;;;5.24;100.00;98446.30;107601;1270;59693;-70
2022/10/27 03:28:18;;;;;;;;;;;;;;;5.30;100.00;98448.03;107621;1268;71610;-70
2022/10/27 03:30:48;;;;;;;;;;;;;;;5.32;100.00;98445.01;107668;1269;69203;-70
2022/10/27 03:33:19;;;;;;;;;;;;;;;5.34;100.00;98454.60;107660;1268;67367;-70
2022/10/27 03:35:48;;;;;;;;;;;;;;;5.35;100.00;98465.29;107679;1269;59785;-70
2022/10/27 03:38:17;;;;;;;;;;;;;;;5.34;100.00;98459.48;107667;1270;59672;-70
2022/10/27 03:40:47;;;;;;;;;;;;;;;5.32;100.00;98456.59;107727;1265;70491;-70
2022/10/27 03:43:17;;;;;;;;;;;;;;;5.33;100.00;98451.03;107675;1269;68563;-70
2022/10/27 03:45:48;;;;;;;;;;;;;;;5.30;100.00;98450.95;107637;1270;68530;-68
2022/10/27 03:48:17;;;;;;;;;;;;;;;5.26;100.00;98446.27;107673;1270;59732;-70
2022/10/27 03:50:48;;;;;;;;;;;;;;;5.21;100.00;98443.17;107660;1270;59778;-69
2022/10/27 03:53:18;;;;;;;;;;;;;;;5.15;100.00;98435.41;107662;1270;69838;-68
2022/10/27 03:55:47;;;;;;;;;;;;;;;5.10;100.00;98436.27;107627;1268;69955;-68
2022/10/27 03:58:17;;;;;;;;;;;;;;;5.04;100.00;98440.09;107601;1270;69331;-68
2022/10/27 04:00:47;;;;;;;;;;;;;;;4.98;100.00;98442.88;107674;1270;59757;-68
2022/10/27 04:03:16;;;;;;;;;;;;;;;4.92;100.00;98444.83;107665;1270;60107;-68
2022/10/27 04:05:49;;;;;;;;;;;;;;;4.86;100.00;98448.14;107648;1269;70895;-68
2022/10/27 04:08:19;;;;;;;;;;;;;;;4.80;100.00;98447.13;107631;1270;68285;-68
2022/10/27 04:10:48;;;;;;;;;;;;;;;4.76;100.00;98448.64;107638;1269;69635;-68
2022/10/27 04:13:18;;;;;;;;;;;;;;;4.73;100.00;98448.42;107626;1269;59828;-68
2022/10/27 04:15:47;;;;;;;;;;;;;;;4.70;100.00;98451.80;107683;1267;59717;-68
2022/10/27 04:18:17;;;;;;;;;;;;;;;4.66;100.00;98452.59;107684;1270;70443;-68
2022/10/27 04:20:46;;;;;;;;;;;;;;;4.65;100.00;98455.05;107671;1268;68337;-68
2022/10/27 04:23:15;;;;;;;;;;;;;;;4.65;100.00;98460.26;107633;1269;69169;-68
2022/10/27 04:25:43;;;;;;;;;;;;;;;4.65;100.00;98466.45;107619;1269;59705;-68
2022/10/27 04:28:14;;;;;;;;;;;;;;;4.67;100.00;98468.64;107658;1269;59728;-68
2022/10/27 04:30:42;;;;;;;;;;;;;;;4.71;100.00;98471.44;107662;1268;71499;-68
2022/10/27 04:33:12;;;;;;;;;;;;;;;4.79;100.00;98474.28;107693;1272;69434;-68
2022/10/27 04:35:41;;;;;;;;;;;;;;;4.85;100.00;98475.98;107616;1267;70018;-68
2022/10/27 04:38:10;;;;;;;;;;;;;;;4.93;100.00;98481.27;107693;1266;59787;-68
2022/10/27 04:40:39;;;;;;;;;;;;;;;4.98;100.00;98489.71;107672;1267;59739;-69
2022/10/27 04:43:07;;;;;;;;;;;;;;;4.99;100.00;98485.90;107661;1270;70679;-69
2022/10/27 04:45:36;;;;;;;;;;;;;;;4.97;100.00;98486.14;107647;1268;69283;-69
2022/10/27 04:48:06;;;;;;;;;;;;;;;4.94;100.00;98485.36;107637;1270;69292;-69
2022/10/27 04:50:34;;;;;;;;;;;;;;;4.94;100.00;98485.36;107683;1270;59766;-69
2022/10/27 04:53:03;;;;;;;;;;;;;;;4.96;100.00;98492.38;107655;1266;59789;-69
2022/10/27 04:55:33;;;;;;;;;;;;;;;4.96;100.00;98494.45;107655;1266;71405;-69
2022/10/27 04:58:02;;;;;;;;;;;;;;;4.92;100.00;98494.92;107668;1267;68719;-69
2022/10/27 05:00:36;;;;;;;;;;;;;;;4.89;100.00;98496.39;107644;1268;69418;-69
2022/10/27 05:03:04;;;;;;;;;;;;;;;4.88;100.00;98493.17;107626;1266;59703;-69
2022/10/27 05:05:33;;;;;;;;;;;;;;;4.85;100.00;98494.64;107677;1271;59715;-69
2022/10/27 05:08:02;;;;;;;;;;;;;;;4.85;100.00;98493.09;107680;1270;72116;-69
2022/10/27 05:10:32;;;;;;;;;;;;;;;4.86;100.00;98491.33;107702;1269;69968;-69
2022/10/27 05:13:01;;;;;;;;;;;;;;;4.91;100.00;98494.97;107640;1269;69896;-69
2022/10/27 05:15:29;;;;;;;;;;;;;;;5.00;100.00;98499.51;107625;1270;59686;-69
2022/10/27 05:17:58;;;;;;;;;;;;;;;5.02;100.00;98501.66;107679;1269;59739;-69
2022/10/27 05:20:27;;;;;;;;;;;;;;;5.00;100.00;98503.83;107688;1264;72143;-69
2022/10/27 05:22:55;;;;;;;;;;;;;;;5.05;100.00;98507.62;107655;1270;68514;-69
2022/10/27 05:25:24;;;;;;;;;;;;;;;5.19;100.00;98507.68;107651;1270;69949;-69
2022/10/27 05:27:52;;;;;;;;;;;;;;;5.26;100.00;98514.70;107642;1270;59821;-69
2022/10/27 05:30:23;;;;;;;;;;;;;;;5.29;100.00;98516.86;107665;1266;59663;-69
2022/10/27 05:32:51;;;;;;;;;;;;;;;5.31;100.00;98518.33;107624;1266;71480;-69
2022/10/27 05:35:20;;;;;;;;;;;;;;;5.34;100.00;98522.90;107644;1274;69316;-69
2022/10/27 05:37:49;;;;;;;;;;;;;;;5.36;100.00;98524.05;107658;1269;69965;-69
2022/10/27 05:40:18;;;;;;;;;;;;;;;5.38;100.00;98524.14;107623;1268;59786;-69
2022/10/27 05:42:51;;;;;;;;;;;;;;;5.39;100.00;98524.96;107657;1268;59778;-69
2022/10/27 05:45:22;;;;;;;;;;;;;;;5.43;100.00;98525.35;107632;1268;70572;-69
2022/10/27 05:48:01;;;;;;;;;;;;;;;5.46;100.00;98526.99;107624;1270;69171;-69
2022/10/27 05:50:30;;;;;;;;;;;;;;;5.47;100.00;98531.80;107651;1270;69463;-71
2022/10/27 05:52:59;;;;;;;;;;;;;;;5.47;100.00;98533.34;107609;1268;59776;-69
2022/10/27 05:55:28;;;;;;;;;;;;;;;5.50;100.00;98532.39;107676;1268;59703;-69
2022/10/27 05:57:59;;;;;;;;;;;;;;;5.53;100.00;98533.83;107651;1269;71878;-70
2022/10/27 06:00:29;;;;;;;;;;;;;;;5.58;100.00;98538.52;107630;1270;69863;-69
2022/10/27 06:02:59;;;;;;;;;;;;;;;5.65;100.00;98543.63;107621;1271;70379;-69
2022/10/27 06:05:28;;;;;;;;;;;;;;;5.71;100.00;98547.90;107661;1268;59705;-69
2022/10/27 06:07:57;;;;;;;;;;;;;;;5.75;100.00;98555.56;107679;1266;59654;-69
2022/10/27 06:10:28;;;;;;;;;;;;;;;5.80;100.00;98556.44;107635;1268;70861;-69
2022/10/27 06:13:01;;;;;;;;;;;;;;;5.88;100.00;98558.21;107636;1268;69619;-69
2022/10/27 06:15:30;;;;;;;;;;;;;;;6.02;100.00;98561.35;107647;1270;69935;-69
2022/10/27 06:17:59;;;;;;;;;;;;;;;6.20;100.00;98558.65;107641;1268;59772;-69
2022/10/27 06:20:28;;;;;;;;;;;;;;;6.29;100.00;98562.27;107653;1270;59731;-69
2022/10/27 06:22:56;;;;;;;;;;;;;;;6.34;100.00;98565.91;107687;1270;72464;-69
2022/10/27 06:25:25;;;;;;;;;;;;;;;6.52;100.00;98567.46;107665;1266;69343;-69
2022/10/27 06:27:53;;;;;;;;;;;;;;;6.86;100.00;98571.55;107630;1268;69676;-69
2022/10/27 06:30:22;;;;;;;;;;;;;;;7.26;100.00;98577.02;107665;1270;59665;-69
2022/10/27 06:32:51;;;;;;;;;;;;;;;7.78;99.84;98580.06;107673;1266;59709;-69
2022/10/27 06:35:20;;;;;;;;;;;;;;;8.37;99.70;98582.17;107627;1269;71635;-69
2022/10/27 06:37:49;;;;;;;;;;;;;;;9.02;100.00;98579.30;107694;1268;68701;-70
2022/10/27 06:40:18;;;;;;;;;;;;;;;9.67;100.00;98573.83;107639;1269;70565;-70
2022/10/27 06:42:52;;;;;;;;;;;;;;;10.29;95.96;98573.95;107659;1266;59683;-71
2022/10/27 06:45:36;;;;;;;;;;;;;;;10.86;94.99;98582.40;107602;1266;59724;-69
2022/10/27 06:48:06;;;;;;;;;;;;;;;11.25;93.40;98581.39;107624;1269;71133;-69
2022/10/27 06:50:34;;;;;;;;;;;;;;;11.21;80.88;98582.35;107747;1264;68457;-69
2022/10/27 06:53:04;;;;;;;;;;;;;;;11.50;85.13;98574.77;107713;1269;70605;-69
2022/10/27 06:55:32;;;;;;;;;;;;;;;11.78;82.14;98574.48;107672;1269;59714;-70
2022/10/27 06:58:01;;;;;;;;;;;;;;;11.86;78.23;98575.97;107678;1269;59771;-70
2022/10/27 07:00:30;;;;;;;;;;;;;;;12.02;77.16;98577.27;107685;1269;71469;-71
2022/10/27 07:02:59;;;;;;;;;;;;;;;12.13;76.45;98574.50;107669;1269;69812;-71
2022/10/27 07:05:27;;;;;;;;;;;;;;;12.56;75.41;98578.16;107614;1269;69375;-71
2022/10/27 07:07:56;;;;;;;;;;;;;;;12.84;72.87;98581.14;107659;1267;59779;-71
2022/10/27 07:10:25;;;;;;;;;;;;;;;13.19;71.94;98582.04;107685;1265;59788;-71
2022/10/27 07:12:54;;;;;;;;;;;;;;;13.41;70.85;98582.19;107643;1265;72001;-71
2022/10/27 07:15:24;;;;;;;;;;;;;;;13.82;69.24;98578.27;107647;1264;69946;-69
2022/10/27 07:18:00;;;;;;;;;;;;;;;13.88;69.41;98578.20;107678;1266;68793;-70
2022/10/27 07:20:29;;;;;;;;;;;;;;;14.28;69.50;98576.00;107638;1266;59766;-70
2022/10/27 07:22:58;;;;;;;;;;;;;;;15.17;68.79;98579.29;107657;1266;59688;-71
2022/10/27 07:25:27;;;;;;;;;;;;;;;15.61;65.28;98576.02;107625;1268;71810;-72
2022/10/27 07:27:57;;;;;;;;;;;;;;;15.90;62.77;98570.91;107101;1268;759416;-70
2022/10/27 07:30:26;;;;;;;;;;;;;;;15.86;61.73;98569.21;107683;1270;69933;-70
2022/10/27 07:32:55;;;;;;;;;;;;;;;16.43;61.01;98570.98;107687;1263;59701;-70
2022/10/27 07:35:24;;;;;;;;;;;;;;;16.63;60.78;98575.60;107654;1267;59673;-71
2022/10/27 07:37:53;;;;;;;;;;;;;;;16.43;59.26;98568.87;107674;1269;70546;-70
2022/10/27 07:40:23;;;;;;;;;;;;;;;16.43;59.38;98574.55;107654;1266;69261;-70
2022/10/27 07:42:59;;;;;;;;;;;;;;;16.29;60.43;98577.36;107610;1266;69634;-70
2022/10/27 07:45:37;;;;;;;;;;;;;;;16.59;59.00;98576.80;107656;1266;59845;-70
2022/10/27 07:48:07;;;;;;;;;;;;;;;16.85;58.47;98577.04;107677;1270;59807;-70
2022/10/27 07:50:35;;;;;;;;;;;;;;;16.80;59.07;98575.89;107690;1269;71525;-71
2022/10/27 07:53:04;;;;;;;;;;;;;;;16.54;60.13;98576.53;107650;1266;69878;-70
2022/10/27 07:55:35;;;;;;;;;;;;;;;16.26;60.43;98577.30;107593;1270;69170;-70
2022/10/27 07:58:03;;;;;;;;;;;;;;;16.70;60.02;98583.48;107671;1269;59658;-70
2022/10/27 08:00:33;;;;;;;;;;;;;;;17.17;58.90;98584.70;107577;1267;59684;-70
2022/10/27 08:03:03;;;;;;;;;;;;;;;17.94;59.35;98579.52;107702;1270;71346;-70
2022/10/27 08:05:33;;;;;;;;;;;;;;;18.90;57.21;98581.19;107635;1269;69906;-70
2022/10/27 08:08:03;;;;;;;;;;;;;;;19.20;54.23;98579.77;107691;1268;69356;-70
2022/10/27 08:10:32;;;;;;;;;;;;;;;19.65;52.95;98580.27;107656;1269;59752;-70
2022/10/27 08:13:01;;;;;;;;;;;;;;;20.23;52.34;98582.80;107637;1271;59731;-70
2022/10/27 08:15:30;;;;;;;;;;;;;;;20.16;49.84;98583.27;107621;1270;71329;-71
2022/10/27 08:18:00;;;;;;;;;;;;;;;20.33;49.51;98581.70;107590;1270;70066;-72
2022/10/27 08:20:31;;;;;;;;;;;;;;;20.98;50.06;98587.39;107618;1270;70016;-73
2022/10/27 08:23:06;;;;;;;;;;;;;;;21.41;47.06;98582.31;107612;1266;59688;-73
2022/10/27 08:25:35;;;;;;;;;;;;;;;21.68;46.59;98580.50;107627;1270;59630;-73
2022/10/27 08:28:04;;;;;;;;;;;;;;;21.75;46.75;98581.36;107567;1270;71674;-72
2022/10/27 08:30:33;;;;;;;;;;;;;;;21.49;45.70;98585.91;107605;1270;69949;-72
2022/10/27 08:33:08;;;;;;;;;;;;;;;21.66;46.40;98585.43;107624;1268;69950;-68
2022/10/27 08:35:37;;;;;;;;;;;;;;;21.30;45.76;98586.02;107654;1270;59771;-71
2022/10/27 08:38:15;;;;;;;;;;;;;;;20.70;47.28;98588.23;107677;1270;59702;-71
2022/10/27 08:41:07;;;;;;;;;;;;;;;20.18;48.44;98589.49;107702;1266;71788;-71
2022/10/27 08:43:38;;;;;;;;;;;;;;;20.40;47.71;98588.70;107585;1270;69362;-71
2022/10/27 08:46:14;;;;;;;;;;;;;;;21.00;46.67;98590.34;107678;1268;69268;-72
2022/10/27 08:48:43;;;;;;;;;;;;;;;21.42;45.65;98586.45;107646;1273;59847;-72
2022/10/27 08:51:17;;;;;;;;;;;;;;;21.16;46.34;98589.48;107687;1269;59721;-71
2022/10/27 08:53:48;;;;;;;;;;;;;;;21.39;46.17;98589.73;107675;1266;72135;-72
2022/10/27 08:56:16;;;;;;;;;;;;;;;22.08;45.51;98584.85;107665;1269;69169;-73
2022/10/27 08:58:46;;;;;;;;;;;;;;;22.83;44.36;98584.21;107618;1268;69526;-73
2022/10/27 09:01:35;;;;;;;;;;;;;;;23.24;43.15;98582.40;107664;1268;59773;-73
2022/10/27 09:04:11;;;;;;;;;;;;;;;23.90;41.43;98582.50;107562;1269;59720;-73
2022/10/27 09:06:50;;;;;;;;;;;;;;;24.48;39.76;98583.39;107630;1264;71453;-72
2022/10/27 09:09:21;;;;;;;;;;;;;;;23.95;39.98;98583.77;107628;1268;69019;-72
2022/10/27 09:12:09;;;;;;;;;;;;;;;24.58;39.99;98583.81;107677;1268;68682;-72
2022/10/27 09:14:56;;;;;;;;;;;;;;;24.57;38.48;98584.70;107636;1264;59731;-72
2022/10/27 09:17:40;;;;;;;;;;;;;;;24.58;38.39;98584.25;107651;1268;59741;-71
2022/10/27 09:20:21;;;;;;;;;;;;;;;24.39;37.97;98580.70;107633;1266;71388;-69
2022/10/27 09:22:52;;;;;;;;;;;;;;;24.65;38.00;98581.83;107561;1265;68390;-72
2022/10/27 09:25:21;;;;;;;;;;;;;;;24.35;38.83;98584.99;107635;1269;69944;-72
2022/10/27 09:27:51;;;;;;;;;;;;;;;24.83;38.72;98591.86;107627;1268;59776;-72
2022/10/27 09:30:20;;;;;;;;;;;;;;;25.53;37.40;98590.02;107648;1268;59811;-71
2022/10/27 09:32:51;;;;;;;;;;;;;;;26.41;37.02;98587.21;107644;1266;70650;-72
2022/10/27 09:35:25;;;;;;;;;;;;;;;26.56;34.96;98587.14;107625;1266;69482;-72
2022/10/27 09:37:56;;;;;;;;;;;;;;;26.53;34.52;98587.72;107617;1269;69880;-72
2022/10/27 09:40:26;;;;;;;;;;;;;;;27.29;34.78;98587.41;107681;1268;59779;-72
2022/10/27 09:42:55;;;;;;;;;;;;;;;27.75;33.93;98582.17;107681;1269;60080;-72
2022/10/27 09:45:25;;;;;;;;;;;;;;;27.34;33.10;98582.27;107635;1269;71795;-72
2022/10/27 09:48:12;;;;;;;;;;;;;;;27.13;33.88;98581.96;107641;1264;69302;-72
2022/10/27 09:51:03;;;;;;;;;;;;;;;26.73;34.01;98575.96;107657;1268;69091;-72
2022/10/27 09:53:43;;;;;;;;;;;;;;;26.38;35.00;98575.53;107602;1268;59777;-71
2022/10/27 09:56:13;;;;;;;;;;;;;;;26.39;34.48;98574.85;107642;1266;59633;-71
2022/10/27 09:58:50;;;;;;;;;;;;;;;25.87;34.57;98571.52;107616;1266;71049;-71
2022/10/27 10:01:19;;;;;;;;;;;;;;;25.45;36.29;98571.08;107651;1265;69118;-72
2022/10/27 10:03:51;;;;;;;;;;;;;;;25.93;35.49;98563.83;107630;1268;70092;-71
2022/10/27 10:06:32;;;;;;;;;;;;;;;26.24;35.44;98566.35;107623;1268;59814;-71
2022/10/27 10:09:30;;;;;;;;;;;;;;;26.15;34.80;98563.31;107645;1266;59718;-71
2022/10/27 10:12:17;;;;;;;;;;;;;;;26.95;34.47;98565.45;107598;1269;72436;-70
2022/10/27 10:15:11;;;;;;;;;;;;;;;26.49;33.94;98565.00;107671;1266;69895;-70
2022/10/27 10:17:50;;;;;;;;;;;;;;;26.81;34.36;98565.12;107649;1269;69787;-71
2022/10/27 10:20:25;;;;;;;;;;;;;;;27.49;33.32;98558.19;107683;1268;59710;-71
2022/10/27 10:22:54;;;;;;;;;;;;;;;27.59;32.74;98553.58;107665;1268;59789;-71
2022/10/27 10:25:33;;;;;;;;;;;;;;;27.61;33.22;98557.73;107650;1266;72460;-71
2022/10/27 10:28:04;;;;;;;;;;;;;;;27.78;32.71;98556.25;107638;1264;68444;-71
2022/10/27 10:30:34;;;;;;;;;;;;;;;27.39;32.70;98556.26;107640;1268;69552;-71
2022/10/27 10:33:05;;;;;;;;;;;;;;;27.24;33.47;98550.87;107658;1265;59732;-72
2022/10/27 10:35:50;;;;;;;;;;;;;;;27.85;32.01;98552.92;107644;1268;59718;-71
2022/10/27 10:38:22;;;;;;;;;;;;;;;26.39;33.83;98549.85;107639;1268;70648;-71
2022/10/27 10:40:57;;;;;;;;;;;;;;;25.75;35.18;98548.53;107610;1264;69480;-71
2022/10/27 10:43:25;;;;;;;;;;;;;;;26.22;35.15;98543.30;107666;1264;70620;-71
2022/10/27 10:45:54;;;;;;;;;;;;;;;27.38;34.09;98544.39;107635;1266;59693;-71
2022/10/27 10:48:33;;;;;;;;;;;;;;;28.35;32.96;98539.43;107677;1266;59740;-71
2022/10/27 10:51:01;;;;;;;;;;;;;;;28.02;31.46;98539.35;107679;1268;71920;-71
2022/10/27 10:53:32;;;;;;;;;;;;;;;27.81;32.09;98537.83;107633;1269;69117;-72
2022/10/27 10:56:03;;;;;;;;;;;;;;;27.77;31.82;98533.94;107629;1264;69290;-72
2022/10/27 10:58:35;;;;;;;;;;;;;;;28.14;32.22;98532.09;107650;1265;59765;-71
2022/10/27 11:01:06;;;;;;;;;;;;;;;28.73;30.69;98532.50;107682;1266;59772;-72
2022/10/27 11:03:42;;;;;;;;;;;;;;;27.95;30.97;98527.19;107673;1268;71369;-70
2022/10/27 11:06:18;;;;;;;;;;;;;;;28.36;30.97;98528.55;107643;1264;69231;-74
2022/10/27 11:08:55;;;;;;;;;;;;;;;27.73;30.96;98524.73;107647;1264;69796;-72
2022/10/27 11:11:27;;;;;;;;;;;;;;;27.12;32.08;98521.61;107653;1264;59768;-72
2022/10/27 11:13:58;;;;;;;;;;;;;;;27.73;31.32;98526.81;107653;1264;59763;-71
2022/10/27 11:16:29;;;;;;;;;;;;;;;26.97;31.50;98523.38;107644;1266;70677;-72
2022/10/27 11:19:01;;;;;;;;;;;;;;;26.58;32.38;98525.79;107588;1266;69202;-72
2022/10/27 11:21:33;;;;;;;;;;;;;;;26.36;32.52;98519.29;107638;1265;70025;-71
2022/10/27 11:24:07;;;;;;;;;;;;;;;27.65;30.33;98522.39;107621;1268;59844;-71
2022/10/27 11:26:37;;;;;;;;;;;;;;;27.25;30.64;98518.92;107637;1269;59726;-71
2022/10/27 11:29:29;;;;;;;;;;;;;;;26.75;31.30;98521.55;107640;1265;72413;-72
2022/10/27 11:32:16;;;;;;;;;;;;;;;27.28;31.22;98522.91;107604;1265;69586;-72
2022/10/27 11:34:48;;;;;;;;;;;;;;;28.01;30.17;98517.30;107597;1268;69971;-72
2022/10/27 11:37:27;;;;;;;;;;;;;;;28.20;29.16;98513.80;107616;1264;59790;-71
2022/10/27 11:40:01;;;;;;;;;;;;;;;27.54;29.84;98509.61;107646;1268;59773;-71
2022/10/27 11:42:42;;;;;;;;;;;;;;;28.13;29.46;98507.82;107658;1266;72387;-72
2022/10/27 11:45:15;;;;;;;;;;;;;;;28.55;29.40;98509.42;107663;1265;69192;-72
2022/10/27 11:47:54;;;;;;;;;;;;;;;28.84;28.48;98515.46;107602;1269;69333;-72
2022/10/27 11:50:22;;;;;;;;;;;;;;;27.89;29.29;98510.86;107666;1266;59688;-71
2022/10/27 11:52:52;;;;;;;;;;;;;;;28.68;28.89;98513.96;107672;1268;59664;-72
2022/10/27 11:55:22;;;;;;;;;;;;;;;28.14;28.78;98511.46;107609;1266;71536;-71
2022/10/27 11:57:57;;;;;;;;;;;;;;;27.73;28.99;98507.63;107661;1268;69086;-71
2022/10/27 12:00:33;;;;;;;;;;;;;;;27.81;29.29;98505.05;107658;1268;69381;-71
2022/10/27 12:03:20;;;;;;;;;;;;;;;27.18;30.26;98504.06;107609;1268;59711;-71
2022/10/27 12:05:58;;;;;;;;;;;;;;;26.76;31.29;98502.83;107665;1266;59676;-69
2022/10/27 12:08:32;;;;;;;;;;;;;;;27.23;31.19;98500.79;107707;1264;72107;-71
2022/10/27 12:11:01;;;;;;;;;;;;;;;28.18;29.79;98499.36;107628;1266;69359;-70
2022/10/27 12:13:42;;;;;;;;;;;;;;;28.59;29.20;98494.54;107636;1268;69984;-71
2022/10/27 12:16:33;;;;;;;;;;;;;;;29.08;28.77;98501.91;107636;1268;59719;-70
2022/10/27 12:19:13;;;;;;;;;;;;;;;29.49;28.09;98498.09;107608;1268;59706;-70
2022/10/27 12:21:47;;;;;;;;;;;;;;;29.50;27.83;98496.33;107640;1265;71651;-71
2022/10/27 12:24:15;;;;;;;;;;;;;;;29.75;27.17;98493.70;107692;1266;69221;-71
2022/10/27 12:26:49;;;;;;;;;;;;;;;29.83;26.67;98496.73;107613;1269;69161;-71
2022/10/27 12:29:18;;;;;;;;;;;;;;;30.31;26.53;98497.31;107658;1267;60139;-71
2022/10/27 12:31:58;;;;;;;;;;;;;;;29.60;26.53;98490.94;107673;1268;59715;-71
2022/10/27 12:34:30;;;;;;;;;;;;;;;30.01;26.17;98488.21;107648;1266;72129;-70
2022/10/27 12:37:14;;;;;;;;;;;;;;;30.35;24.93;98488.09;107645;1268;68626;-71
2022/10/27 12:39:50;;;;;;;;;;;;;;;30.29;25.46;98484.65;107619;1264;69966;-71
2022/10/27 12:42:32;;;;;;;;;;;;;;;30.49;25.57;98481.20;107653;1266;59780;-71
2022/10/27 12:45:26;;;;;;;;;;;;;;;30.28;23.93;98484.09;107637;1264;59708;-71
2022/10/27 12:48:04;;;;;;;;;;;;;;;29.99;24.94;98479.69;107694;1268;71406;-70
2022/10/27 12:50:47;;;;;;;;;;;;;;;30.83;25.17;98481.67;107673;1268;69249;-70
2022/10/27 12:53:25;;;;;;;;;;;;;;;31.26;25.43;98482.44;107661;1268;69446;-71
2022/10/27 12:56:00;;;;;;;;;;;;;;;30.78;24.60;98480.58;107657;1264;59836;-71
2022/10/27 12:58:32;;;;;;;;;;;;;;;30.83;24.87;98478.59;107644;1268;59773;-71
2022/10/27 13:01:11;;;;;;;;;;;;;;;30.29;24.47;98479.59;107655;1265;71889;-71
2022/10/27 13:03:42;;;;;;;;;;;;;;;28.64;26.41;98478.89;107662;1268;69749;-71